Stephen M. White — WCU6542 — position and weather

sailwx.info

Track history (hours):
 
Tides and Currents Weather Stations Pressure Air Temp Water Temp Dewpoint Dewpoint Depression Visibility Wind Speed Wind Dir Waves Ship Positions

Stephen M. White

Owner: LOS ANGELES, CITY OF, SAN PEDRO, CA. More information available from US FCC via Universal Licensing System and Coast Guard Vessel Documentation Center.

Last reported at 2017-Oct-18 22:00 UTC. Time now 2017-Oct-18 22:20 UTC.
Position N 33°43' W 118°16'.

Length 13 m.

Type: Other ship. MMSI: 367049470.

Date/timePositionNaut miles runAvg speedWind from/ knotsBaromVisibWave heightAir tempDewpointWater temp
2017-Oct-18 22:00N 33°43' W 118°16'0 0.0
2017-Oct-18 21:28N 33°43' W 118°16'0 0.0
2017-Oct-18 20:58N 33°43' W 118°16'0 0.0
2017-Oct-18 20:27N 33°43' W 118°16'0 0.0
2017-Oct-18 20:00N 33°43' W 118°16'3 6.4
2017-Oct-18 19:29N 33°42' W 118°13'1 2.0
2017-Oct-18 18:58N 33°43' W 118°14'2 3.2
2017-Oct-18 18:30N 33°43' W 118°16'1 1.6
2017-Oct-18 18:00N 33°43' W 118°16'0 0.0
2017-Oct-18 17:30N 33°43' W 118°16'0 0.0
2017-Oct-18 17:00N 33°43' W 118°16'0 0.0
2017-Oct-18 16:27N 33°43' W 118°16'1 1.7
2017-Oct-18 15:56N 33°44' W 118°17'5 9.1
2017-Oct-18 15:26N 33°43' W 118°11'4 7.1
2017-Oct-18 14:50N 33°43' W 118°16'0 0.0
2017-Oct-18 12:12N 33°43' W 118°16'1 6.2
2017-Oct-18 12:00N 33°43' W 118°15'0 0.2
2017-Oct-18 11:30N 33°43' W 118°15'1 0.7
2017-Oct-18 09:52N 33°43' W 118°16'0 0.0
2017-Oct-18 09:29N 33°43' W 118°16'2 0.7
2017-Oct-18 07:10N 33°42' W 118°15'320.8
2017-Oct-18 07:01N 33°39' W 118°13'5 2.0
2017-Oct-18 04:43N 33°43' W 118°16'1 0.3
2017-Oct-18 01:10N 33°43' W 118°15'1 3.2
2017-Oct-18 00:48N 33°43' W 118°16'1 4.3
2017-Oct-18 00:30N 33°43' W 118°15'1 2.4
2017-Oct-17 23:58N 33°43' W 118°16'0 0.0
2017-Oct-17 23:25N 33°43' W 118°16'0 0.0
2017-Oct-17 22:54N 33°43' W 118°16'0 0.0
2017-Oct-17 21:53N 33°43' W 118°16'0 0.0
2017-Oct-17 21:30N 33°43' W 118°16'0 0.0
2017-Oct-17 20:46N 33°43' W 118°16'0 0.0
2017-Oct-17 20:23N 33°43' W 118°16'0 0.0
2017-Oct-17 19:54N 33°43' W 118°16'0 0.0
2017-Oct-17 19:30N 33°43' W 118°16'0 0.0
2017-Oct-17 19:00N 33°43' W 118°16'0 0.0
2017-Oct-17 18:28N 33°43' W 118°16'0 0.0
2017-Oct-17 18:00N 33°43' W 118°16'0 0.0
2017-Oct-17 17:29N 33°43' W 118°16'0 0.0
2017-Oct-17 17:00N 33°43' W 118°16'0 0.0
2017-Oct-17 16:28N 33°43' W 118°16'0 0.0
2017-Oct-17 15:59N 33°43' W 118°16'5 1.1
2017-Oct-17 11:46N 33°39' W 118°14'5 0.8
2017-Oct-17 05:58N 33°43' W 118°16'1 0.4
2017-Oct-17 02:57N 33°43' W 118°15'1 1.0
2017-Oct-17 01:47N 33°43' W 118°16'1 1.3
2017-Oct-17 01:23N 33°43' W 118°16'3 6.4
2017-Oct-17 00:54N 33°41' W 118°13'4 6.9
2017-Oct-17 00:22N 33°43' W 118°16'0 0.0
2017-Oct-17 00:00N 33°43' W 118°16'0 0.0
2017-Oct-16 23:15N 33°43' W 118°16'0 0.0
2017-Oct-16 23:00N 33°43' W 118°16'0 0.0
2017-Oct-16 22:28N 33°43' W 118°16'0 0.0
2017-Oct-16 22:00N 33°43' W 118°16'0 0.0
2017-Oct-16 21:30N 33°43' W 118°16'0 0.4
2017-Oct-16 21:00N 33°43' W 118°16'5 9.1
2017-Oct-16 20:30N 33°39' W 118°13'0 0.9
2017-Oct-16 19:59N 33°40' W 118°13'4 9.1
2017-Oct-16 19:30N 33°43' W 118°16'0 0.0
2017-Oct-16 19:00N 33°43' W 118°16'0 0.0
2017-Oct-16 18:30N 33°43' W 118°16'0 0.0
2017-Oct-16 18:00N 33°43' W 118°16'3 6.0
2017-Oct-16 17:31N 33°41' W 118°15'3 5.8
2017-Oct-16 17:00N 33°43' W 118°16'0 0.0
2017-Oct-16 16:29N 33°43' W 118°16'0 0.0
2017-Oct-16 15:59N 33°43' W 118°16'0 0.0
2017-Oct-16 15:29N 33°43' W 118°16'0 0.0
2017-Oct-16 01:17N 33°43' W 118°16'0 0.0
2017-Oct-16 01:00N 33°43' W 118°16'0 0.0
2017-Oct-16 00:30N 33°43' W 118°16'4 8.3
2017-Oct-16 00:00N 33°40' W 118°14'4 7.9
2017-Oct-15 23:29N 33°43' W 118°16'0 0.0
2017-Oct-15 22:51N 33°43' W 118°16'0 0.0
2017-Oct-15 22:30N 33°43' W 118°16'0 0.0
2017-Oct-15 21:59N 33°43' W 118°16'3 5.1
2017-Oct-15 21:29N 33°41' W 118°14'3 4.8
2017-Oct-15 20:58N 33°43' W 118°16'0 0.0
2017-Oct-15 20:20N 33°43' W 118°16'0 0.0
2017-Oct-15 19:58N 33°43' W 118°16'0 0.0
2017-Oct-15 19:30N 33°43' W 118°16'0 0.0
2017-Oct-15 19:00N 33°43' W 118°16'0 0.0
2017-Oct-15 18:29N 33°43' W 118°16'0 0.0
2017-Oct-15 18:00N 33°43' W 118°16'0 0.0
2017-Oct-15 17:30N 33°43' W 118°16'0 0.0
2017-Oct-15 17:00N 33°43' W 118°16'0 0.0
2017-Oct-15 16:28N 33°43' W 118°16'0 0.0
2017-Oct-15 16:00N 33°43' W 118°16'0 0.0
2017-Oct-15 15:30N 33°43' W 118°16'0 0.0
2017-Oct-15 14:53N 33°43' W 118°16'0 0.0
2017-Oct-15 13:59N 33°43' W 118°16'0 0.2
2017-Oct-15 13:13N 33°43' W 118°16'1 4.8
2017-Oct-15 13:00N 33°43' W 118°15'1 2.4
2017-Oct-15 12:31N 33°43' W 118°16'1 2.2
2017-Oct-15 12:01N 33°43' W 118°15'1 2.2
2017-Oct-15 11:30N 33°43' W 118°16'0 0.8
2017-Oct-15 11:00N 33°43' W 118°16'0 0.8
2017-Oct-15 10:30N 33°43' W 118°16'0 0.0
2017-Oct-15 10:00N 33°43' W 118°16'0 0.0
2017-Oct-15 09:30N 33°43' W 118°16'0 0.0
2017-Oct-15 09:00N 33°43' W 118°16'0 0.0
2017-Oct-15 08:30N 33°43' W 118°16'0 0.0
2017-Oct-15 08:01N 33°43' W 118°16'0 0.0
2017-Oct-15 07:30N 33°43' W 118°16'0 0.0
2017-Oct-15 07:01N 33°43' W 118°16'0 0.0
2017-Oct-15 06:30N 33°43' W 118°16'0 0.0
2017-Oct-15 06:00N 33°43' W 118°16'0 0.0
2017-Oct-15 05:31N 33°43' W 118°16'0 0.0
2017-Oct-15 04:39N 33°43' W 118°16'0 0.0
2017-Oct-15 04:20N 33°43' W 118°16'0 0.0
2017-Oct-15 04:00N 33°43' W 118°16'0 0.3
2017-Oct-15 03:30N 33°43' W 118°16'0 0.3
2017-Oct-15 02:59N 33°43' W 118°16'0 0.0
2017-Oct-15 02:30N 33°43' W 118°16'0 0.0
2017-Oct-15 02:00N 33°43' W 118°16'2 3.4
2017-Oct-15 01:30N 33°42' W 118°15'2 3.4
2017-Oct-15 01:00N 33°43' W 118°16'1 2.4
2017-Oct-15 00:30N 33°43' W 118°15'1 2.3
2017-Oct-15 00:00N 33°43' W 118°16'0 0.0
2017-Oct-14 23:30N 33°43' W 118°16'0 0.0
2017-Oct-14 22:59N 33°43' W 118°16'0 0.0
2017-Oct-14 22:30N 33°43' W 118°16'0 0.0
2017-Oct-14 21:49N 33°43' W 118°16'0 0.0
2017-Oct-14 21:30N 33°43' W 118°16'0 0.0
2017-Oct-14 20:59N 33°43' W 118°16'0 0.0
2017-Oct-14 20:30N 33°43' W 118°16'0 0.0
2017-Oct-14 20:00N 33°43' W 118°16'0 0.0
2017-Oct-14 19:30N 33°43' W 118°16'0 0.0
2017-Oct-14 19:00N 33°43' W 118°16'0 0.0
2017-Oct-14 18:30N 33°43' W 118°16'0 0.0
2017-Oct-14 17:59N 33°43' W 118°16'0 0.0
2017-Oct-14 17:30N 33°43' W 118°16'0 0.0
2017-Oct-14 17:00N 33°43' W 118°16'0 0.0
2017-Oct-14 16:30N 33°43' W 118°16'0 0.0
2017-Oct-14 16:00N 33°43' W 118°16'0 0.0
2017-Oct-14 15:30N 33°43' W 118°16'0 0.0
2017-Oct-14 14:56N 33°43' W 118°16'0 0.0
2017-Oct-14 14:22N 33°43' W 118°16'0 0.0
2017-Oct-14 13:29N 33°43' W 118°16'0 0.0
2017-Oct-14 12:53N 33°43' W 118°16'0 0.4
2017-Oct-14 12:31N 33°43' W 118°16'5 8.7
2017-Oct-14 11:59N 33°40' W 118°12'510.3
2017-Oct-14 11:30N 33°43' W 118°16'2 3.3
2017-Oct-14 10:58N 33°42' W 118°15'2 3.5
2017-Oct-14 10:28N 33°43' W 118°16'0 0.0
2017-Oct-14 09:52N 33°43' W 118°16'0 0.0
2017-Oct-14 09:30N 33°43' W 118°16'0 0.0
2017-Oct-14 08:43N 33°43' W 118°16'0 0.0
2017-Oct-14 08:29N 33°43' W 118°16'0 0.0
2017-Oct-14 07:46N 33°43' W 118°16'0 0.0
2017-Oct-14 07:12N 33°43' W 118°16'1 3.1
2017-Oct-14 07:00N 33°43' W 118°16'1 1.2
2017-Oct-14 06:30N 33°43' W 118°16'0 0.0
2017-Oct-14 06:01N 33°43' W 118°16'0 0.0
2017-Oct-14 05:28N 33°43' W 118°16'0 0.0
2017-Oct-14 04:52N 33°43' W 118°16'0 0.0
2017-Oct-14 04:30N 33°43' W 118°16'0 0.0
2017-Oct-14 03:59N 33°43' W 118°16'0 0.0
2017-Oct-14 03:30N 33°43' W 118°16'0 0.0
2017-Oct-14 03:00N 33°43' W 118°16'0 0.0
2017-Oct-14 02:30N 33°43' W 118°16'0 0.0
2017-Oct-14 01:59N 33°43' W 118°16'0 0.0
2017-Oct-14 01:25N 33°43' W 118°16'0 0.0
2017-Oct-14 01:00N 33°43' W 118°16'0 0.0
2017-Oct-14 00:30N 33°43' W 118°16'0 0.0
2017-Oct-14 00:00N 33°43' W 118°16'0 0.0
2017-Oct-13 23:30N 33°43' W 118°16'0 0.0
2017-Oct-13 23:00N 33°43' W 118°16'0 0.0
2017-Oct-13 22:25N 33°43' W 118°16'0 0.0
2017-Oct-13 21:52N 33°43' W 118°16'0 0.0
2017-Oct-13 21:23N 33°43' W 118°16'0 0.0
2017-Oct-13 21:00N 33°43' W 118°16'0 0.0
2017-Oct-13 20:30N 33°43' W 118°16'0 0.0
2017-Oct-13 20:00N 33°43' W 118°16'0 0.0
2017-Oct-13 19:30N 33°43' W 118°16'0 0.0
2017-Oct-13 19:00N 33°43' W 118°16'0 0.0
2017-Oct-13 18:29N 33°43' W 118°16'2 3.5
2017-Oct-13 18:00N 33°42' W 118°15'2 3.0
2017-Oct-13 17:26N 33°43' W 118°16'0 0.0
2017-Oct-13 16:58N 33°43' W 118°16'0 0.0
2017-Oct-13 16:30N 33°43' W 118°16'0 0.0
2017-Oct-13 16:00N 33°43' W 118°16'0 0.0
2017-Oct-13 15:29N 33°43' W 118°16'0 0.0
2017-Oct-13 15:01N 33°43' W 118°16'0 0.0
2017-Oct-13 14:29N 33°43' W 118°16'0 0.0
2017-Oct-13 14:00N 33°43' W 118°16'0 0.0
2017-Oct-13 13:24N 33°43' W 118°16'0 0.0
2017-Oct-13 13:01N 33°43' W 118°16'0 0.0
2017-Oct-13 11:59N 33°43' W 118°16'0 0.0
2017-Oct-13 11:30N 33°43' W 118°16'0 0.0
2017-Oct-13 10:55N 33°43' W 118°16'0 0.0
2017-Oct-13 10:30N 33°43' W 118°16'0 0.0
2017-Oct-13 09:53N 33°43' W 118°16'0 0.0
2017-Oct-13 09:28N 33°43' W 118°16'0 0.0
2017-Oct-13 09:01N 33°43' W 118°16'0 0.0
2017-Oct-13 08:30N 33°43' W 118°16'0 0.0
2017-Oct-13 08:00N 33°43' W 118°16'0 0.0
2017-Oct-13 07:30N 33°43' W 118°16'0 0.0
2017-Oct-13 07:00N 33°43' W 118°16'0 0.0
2017-Oct-13 06:30N 33°43' W 118°16'0 0.0
2017-Oct-13 05:59N 33°43' W 118°16'0 0.0
2017-Oct-13 05:30N 33°43' W 118°16'0 0.0
2017-Oct-13 05:00N 33°43' W 118°16'0 0.0
2017-Oct-13 04:15N 33°43' W 118°16'0 0.0
2017-Oct-13 03:59N 33°43' W 118°16'0 0.0
2017-Oct-13 03:06N 33°43' W 118°16'0 0.0
2017-Oct-13 02:51N 33°43' W 118°16'0 0.0
2017-Oct-13 02:28N 33°43' W 118°16'0 0.0
2017-Oct-13 01:51N 33°43' W 118°16'0 0.0
2017-Oct-13 01:28N 33°43' W 118°16'0 0.0
2017-Oct-13 00:58N 33°43' W 118°16'0 0.0
2017-Oct-13 00:23N 33°43' W 118°16'1 3.4
2017-Oct-12 23:58N 33°44' W 118°15'1 2.7
2017-Oct-12 23:27N 33°43' W 118°16'0 0.0
2017-Oct-12 22:53N 33°43' W 118°16'0 0.0
2017-Oct-12 22:28N 33°43' W 118°16'3 7.2
2017-Oct-12 22:00N 33°40' W 118°15'3 4.4
2017-Oct-12 21:15N 33°43' W 118°16'0 0.0
2017-Oct-12 20:53N 33°43' W 118°16'0 0.0
2017-Oct-12 20:30N 33°43' W 118°16'0 0.0
2017-Oct-12 20:00N 33°43' W 118°16'0 0.0
2017-Oct-12 19:29N 33°43' W 118°16'0 0.0
2017-Oct-12 19:00N 33°43' W 118°16'0 0.0
2017-Oct-12 18:26N 33°43' W 118°16'0 0.0
2017-Oct-12 17:59N 33°43' W 118°16'0 0.0
2017-Oct-12 17:27N 33°43' W 118°16'0 0.0
2017-Oct-12 17:00N 33°43' W 118°16'0 0.0
2017-Oct-12 16:27N 33°43' W 118°16'0 0.0
2017-Oct-12 14:21N 33°43' W 118°16'0 0.0
2017-Oct-12 13:38N 33°43' W 118°16'2 5.7
2017-Oct-12 13:19N 33°42' W 118°15'1 1.3
2017-Oct-12 12:48N 33°43' W 118°15'1 2.8
2017-Oct-12 12:24N 33°43' W 118°16'0 0.1
2017-Oct-12 11:14N 33°43' W 118°16'4 9.8
2017-Oct-12 10:49N 33°40' W 118°14'4 4.4
2017-Oct-12 09:54N 33°43' W 118°16'0 0.0
2017-Oct-12 09:30N 33°43' W 118°16'0 0.0
2017-Oct-12 08:57N 33°43' W 118°16'0 0.0
2017-Oct-12 08:30N 33°43' W 118°16'0 0.0
2017-Oct-12 08:00N 33°43' W 118°16'0 0.0
2017-Oct-12 07:05N 33°43' W 118°16'0 0.0
2017-Oct-12 06:59N 33°43' W 118°16'1 0.4
2017-Oct-12 05:15N 33°43' W 118°16'1 2.0
2017-Oct-12 04:55N 33°43' W 118°16'0 0.2
2017-Oct-12 02:35N 33°43' W 118°16'0 3.0
2017-Oct-12 02:26N 33°43' W 118°15'1 1.8
2017-Oct-12 01:56N 33°43' W 118°16'0 0.0
2017-Oct-12 01:26N 33°43' W 118°16'1 3.1
2017-Oct-12 01:00N 33°43' W 118°15'1 2.6
2017-Oct-12 00:30N 33°43' W 118°16'0 0.0
2017-Oct-12 00:00N 33°43' W 118°16'0 0.0
2017-Oct-11 23:30N 33°43' W 118°16'0 0.0
2017-Oct-11 23:00N 33°43' W 118°16'0 0.0
2017-Oct-11 22:30N 33°43' W 118°16'0 0.0
2017-Oct-11 22:00N 33°43' W 118°16'0 0.0
2017-Oct-11 21:31N 33°43' W 118°16'0 0.0
2017-Oct-11 20:55N 33°43' W 118°16'0 0.0
2017-Oct-11 20:30N 33°43' W 118°16'0 0.0
2017-Oct-11 20:00N 33°43' W 118°16'0 0.0
2017-Oct-11 19:30N 33°43' W 118°16'0 0.0
2017-Oct-11 19:00N 33°43' W 118°16'0 0.0
2017-Oct-11 18:30N 33°43' W 118°16'0 0.0
2017-Oct-11 17:59N 33°43' W 118°16'0 0.0
2017-Oct-11 17:30N 33°43' W 118°16'0 0.0
2017-Oct-11 16:59N 33°43' W 118°16'0 0.0
2017-Oct-11 00:00N 33°43' W 118°16'0 0.0
2017-Oct-10 23:30N 33°43' W 118°16'1 1.6
2017-Oct-10 23:01N 33°43' W 118°15'1 1.6
2017-Oct-10 22:30N 33°43' W 118°16'0 0.0
2017-Oct-10 22:00N 33°43' W 118°16'2 3.1
2017-Oct-10 21:30N 33°42' W 118°15'2 3.0
2017-Oct-10 21:00N 33°43' W 118°16'3 7.0
2017-Oct-10 20:30N 33°40' W 118°14'3 6.9
2017-Oct-10 20:00N 33°43' W 118°16'0 0.0
2017-Oct-10 19:28N 33°43' W 118°16'0 0.0
2017-Oct-10 19:00N 33°43' W 118°16'0 0.0
2017-Oct-10 18:30N 33°43' W 118°16'0 0.0
2017-Oct-10 18:00N 33°43' W 118°16'0 0.0
2017-Oct-10 17:29N 33°43' W 118°16'0 0.0
2017-Oct-10 17:00N 33°43' W 118°16'0 0.0
2017-Oct-10 16:30N 33°43' W 118°16'0 0.0
2017-Oct-10 16:00N 33°43' W 118°16'0 0.0
2017-Oct-10 15:30N 33°43' W 118°16'0 0.0
2017-Oct-10 14:57N 33°43' W 118°16'0 0.0
2017-Oct-10 14:00N 33°43' W 118°16'0 0.0
2017-Oct-10 13:30N 33°43' W 118°16'0 0.0
2017-Oct-10 13:00N 33°43' W 118°16'1 3.0
2017-Oct-10 12:30N 33°42' W 118°15'1 2.9
2017-Oct-10 12:00N 33°43' W 118°16'0 0.1
2017-Oct-10 11:29N 33°43' W 118°16'0 0.1
2017-Oct-10 11:00N 33°43' W 118°16'0 0.2
2017-Oct-10 10:30N 33°43' W 118°16'0 0.2
2017-Oct-10 10:00N 33°43' W 118°16'0 0.0
2017-Oct-10 09:31N 33°43' W 118°16'0 0.0
2017-Oct-10 09:00N 33°43' W 118°16'0 0.0
2017-Oct-10 08:30N 33°43' W 118°16'0 0.0
2017-Oct-10 08:00N 33°43' W 118°16'0 0.0
2017-Oct-10 07:30N 33°43' W 118°16'0 0.0
2017-Oct-10 07:00N 33°43' W 118°16'0 0.0
2017-Oct-10 06:30N 33°43' W 118°16'0 0.0
2017-Oct-10 06:00N 33°43' W 118°16'0 0.0
2017-Oct-10 05:30N 33°43' W 118°16'0 0.0
2017-Oct-10 05:00N 33°43' W 118°16'0 0.0
2017-Oct-10 04:30N 33°43' W 118°16'0 0.0
2017-Oct-10 04:00N 33°43' W 118°16'0 0.0
2017-Oct-10 03:30N 33°43' W 118°16'0 0.0
2017-Oct-10 03:00N 33°43' W 118°16'0 0.0
2017-Oct-10 02:30N 33°43' W 118°16'0 0.0
2017-Oct-10 02:00N 33°43' W 118°16'0 0.0
2017-Oct-10 01:30N 33°43' W 118°16'0 0.0
2017-Oct-10 01:00N 33°43' W 118°16'0 0.0
2017-Oct-10 00:30N 33°43' W 118°16'1 2.6
2017-Oct-10 00:00N 33°43' W 118°15'1 1.6
2017-Oct-09 23:30N 33°43' W 118°16'0 0.4
2017-Oct-09 23:00N 33°43' W 118°16'0 0.7
2017-Oct-09 22:31N 33°43' W 118°16'0 0.7
2017-Oct-09 22:01N 33°43' W 118°16'0 0.7
2017-Oct-09 21:30N 33°43' W 118°16'0 0.7
2017-Oct-09 21:00N 33°43' W 118°16'0 0.7
2017-Oct-09 20:30N 33°43' W 118°16'0 0.0
2017-Oct-09 20:00N 33°43' W 118°16'0 0.5
2017-Oct-09 19:30N 33°43' W 118°16'0 0.5
2017-Oct-09 19:00N 33°43' W 118°16'0 0.0
2017-Oct-09 18:30N 33°43' W 118°16'0 0.0
2017-Oct-09 18:00N 33°43' W 118°16'0 0.0
2017-Oct-09 17:30N 33°43' W 118°16'0 0.0
2017-Oct-09 17:00N 33°43' W 118°16'3 6.1
2017-Oct-09 16:30N 33°43' W 118°13'3 5.4
2017-Oct-09 15:57N 33°43' W 118°16'0 0.0
2017-Oct-09 07:00N 33°43' W 118°16'0 0.0
2017-Oct-09 04:03N 33°43' W 118°16'0 0.0
2017-Oct-09 03:43N 33°43' W 118°16'0 0.0
2017-Oct-09 02:25N 33°43' W 118°16'0 0.0
2017-Oct-09 01:57N 33°43' W 118°16'0 0.0
2017-Oct-09 01:30N 33°43' W 118°16'2 4.3
2017-Oct-09 00:59N 33°44' W 118°14'2 3.8
2017-Oct-09 00:25N 33°43' W 118°16'0 0.6
2017-Oct-08 23:54N 33°43' W 118°16'0 0.0
2017-Oct-08 23:30N 33°43' W 118°16'0 0.0
2017-Oct-08 22:54N 33°43' W 118°16'0 0.0
2017-Oct-08 22:30N 33°43' W 118°16'0 0.0
2017-Oct-08 22:00N 33°43' W 118°16'  
Track history (hours):
 
Tides and Currents Weather Stations Pressure Air Temp Water Temp Dewpoint Dewpoint Depression Visibility Wind Speed Wind Dir Waves Ship Positions

Stephen M. White

Owner: LOS ANGELES, CITY OF, SAN PEDRO, CA. More information available from US FCC via Universal Licensing System and Coast Guard Vessel Documentation Center.

Last reported at 2017-Oct-18 22:00 UTC. Time now 2017-Oct-18 22:20 UTC.
Position N 33°43' W 118°16'.

Length 13 m.

Type: Other ship. MMSI: 367049470.

Date/timePositionNaut miles runAvg speedWind from/ knotsBaromVisibWave heightAir tempDewpointWater temp
2017-Oct-18 22:00N 33°43' W 118°16'0 0.0
2017-Oct-18 21:28N 33°43' W 118°16'0 0.0
2017-Oct-18 20:58N 33°43' W 118°16'0 0.0
2017-Oct-18 20:27N 33°43' W 118°16'0 0.0
2017-Oct-18 20:00N 33°43' W 118°16'3 6.4
2017-Oct-18 19:29N 33°42' W 118°13'1 2.0
2017-Oct-18 18:58N 33°43' W 118°14'2 3.2
2017-Oct-18 18:30N 33°43' W 118°16'1 1.6
2017-Oct-18 18:00N 33°43' W 118°16'0 0.0
2017-Oct-18 17:30N 33°43' W 118°16'0 0.0
2017-Oct-18 17:00N 33°43' W 118°16'0 0.0
2017-Oct-18 16:27N 33°43' W 118°16'1 1.7
2017-Oct-18 15:56N 33°44' W 118°17'5 9.1
2017-Oct-18 15:26N 33°43' W 118°11'4 7.1
2017-Oct-18 14:50N 33°43' W 118°16'0 0.0
2017-Oct-18 12:12N 33°43' W 118°16'1 6.2
2017-Oct-18 12:00N 33°43' W 118°15'0 0.2
2017-Oct-18 11:30N 33°43' W 118°15'1 0.7
2017-Oct-18 09:52N 33°43' W 118°16'0 0.0
2017-Oct-18 09:29N 33°43' W 118°16'2 0.7
2017-Oct-18 07:10N 33°42' W 118°15'320.8
2017-Oct-18 07:01N 33°39' W 118°13'5 2.0
2017-Oct-18 04:43N 33°43' W 118°16'1 0.3
2017-Oct-18 01:10N 33°43' W 118°15'1 3.2
2017-Oct-18 00:48N 33°43' W 118°16'1 4.3
2017-Oct-18 00:30N 33°43' W 118°15'1 2.4
2017-Oct-17 23:58N 33°43' W 118°16'0 0.0
2017-Oct-17 23:25N 33°43' W 118°16'0 0.0
2017-Oct-17 22:54N 33°43' W 118°16'0 0.0
2017-Oct-17 21:53N 33°43' W 118°16'0 0.0
2017-Oct-17 21:30N 33°43' W 118°16'0 0.0
2017-Oct-17 20:46N 33°43' W 118°16'0 0.0
2017-Oct-17 20:23N 33°43' W 118°16'0 0.0
2017-Oct-17 19:54N 33°43' W 118°16'0 0.0
2017-Oct-17 19:30N 33°43' W 118°16'0 0.0
2017-Oct-17 19:00N 33°43' W 118°16'0 0.0
2017-Oct-17 18:28N 33°43' W 118°16'0 0.0
2017-Oct-17 18:00N 33°43' W 118°16'0 0.0
2017-Oct-17 17:29N 33°43' W 118°16'0 0.0
2017-Oct-17 17:00N 33°43' W 118°16'0 0.0
2017-Oct-17 16:28N 33°43' W 118°16'0 0.0
2017-Oct-17 15:59N 33°43' W 118°16'5 1.1
2017-Oct-17 11:46N 33°39' W 118°14'5 0.8
2017-Oct-17 05:58N 33°43' W 118°16'1 0.4
2017-Oct-17 02:57N 33°43' W 118°15'1 1.0
2017-Oct-17 01:47N 33°43' W 118°16'1 1.3
2017-Oct-17 01:23N 33°43' W 118°16'3 6.4
2017-Oct-17 00:54N 33°41' W 118°13'4 6.9
2017-Oct-17 00:22N 33°43' W 118°16'0 0.0
2017-Oct-17 00:00N 33°43' W 118°16'0 0.0
2017-Oct-16 23:15N 33°43' W 118°16'0 0.0
2017-Oct-16 23:00N 33°43' W 118°16'0 0.0
2017-Oct-16 22:28N 33°43' W 118°16'0 0.0
2017-Oct-16 22:00N 33°43' W 118°16'0 0.0
2017-Oct-16 21:30N 33°43' W 118°16'0 0.4
2017-Oct-16 21:00N 33°43' W 118°16'5 9.1
2017-Oct-16 20:30N 33°39' W 118°13'0 0.9
2017-Oct-16 19:59N 33°40' W 118°13'4 9.1
2017-Oct-16 19:30N 33°43' W 118°16'0 0.0
2017-Oct-16 19:00N 33°43' W 118°16'0 0.0
2017-Oct-16 18:30N 33°43' W 118°16'0 0.0
2017-Oct-16 18:00N 33°43' W 118°16'3 6.0
2017-Oct-16 17:31N 33°41' W 118°15'3 5.8
2017-Oct-16 17:00N 33°43' W 118°16'0 0.0
2017-Oct-16 16:29N 33°43' W 118°16'0 0.0
2017-Oct-16 15:59N 33°43' W 118°16'0 0.0
2017-Oct-16 15:29N 33°43' W 118°16'0 0.0
2017-Oct-16 01:17N 33°43' W 118°16'0 0.0
2017-Oct-16 01:00N 33°43' W 118°16'0 0.0
2017-Oct-16 00:30N 33°43' W 118°16'4 8.3
2017-Oct-16 00:00N 33°40' W 118°14'4 7.9
2017-Oct-15 23:29N 33°43' W 118°16'0 0.0
2017-Oct-15 22:51N 33°43' W 118°16'0 0.0
2017-Oct-15 22:30N 33°43' W 118°16'0 0.0
2017-Oct-15 21:59N 33°43' W 118°16'3 5.1
2017-Oct-15 21:29N 33°41' W 118°14'3 4.8
2017-Oct-15 20:58N 33°43' W 118°16'0 0.0
2017-Oct-15 20:20N 33°43' W 118°16'0 0.0
2017-Oct-15 19:58N 33°43' W 118°16'0 0.0
2017-Oct-15 19:30N 33°43' W 118°16'0 0.0
2017-Oct-15 19:00N 33°43' W 118°16'0 0.0
2017-Oct-15 18:29N 33°43' W 118°16'0 0.0
2017-Oct-15 18:00N 33°43' W 118°16'0 0.0
2017-Oct-15 17:30N 33°43' W 118°16'0 0.0
2017-Oct-15 17:00N 33°43' W 118°16'0 0.0
2017-Oct-15 16:28N 33°43' W 118°16'0 0.0
2017-Oct-15 16:00N 33°43' W 118°16'0 0.0
2017-Oct-15 15:30N 33°43' W 118°16'0 0.0
2017-Oct-15 14:53N 33°43' W 118°16'0 0.0
2017-Oct-15 13:59N 33°43' W 118°16'0 0.2
2017-Oct-15 13:13N 33°43' W 118°16'1 4.8
2017-Oct-15 13:00N 33°43' W 118°15'1 2.4
2017-Oct-15 12:31N 33°43' W 118°16'1 2.2
2017-Oct-15 12:01N 33°43' W 118°15'1 2.2
2017-Oct-15 11:30N 33°43' W 118°16'0 0.8
2017-Oct-15 11:00N 33°43' W 118°16'0 0.8
2017-Oct-15 10:30N 33°43' W 118°16'0 0.0
2017-Oct-15 10:00N 33°43' W 118°16'0 0.0
2017-Oct-15 09:30N 33°43' W 118°16'0 0.0
2017-Oct-15 09:00N 33°43' W 118°16'0 0.0
2017-Oct-15 08:30N 33°43' W 118°16'0 0.0
2017-Oct-15 08:01N 33°43' W 118°16'0 0.0
2017-Oct-15 07:30N 33°43' W 118°16'0 0.0
2017-Oct-15 07:01N 33°43' W 118°16'0 0.0
2017-Oct-15 06:30N 33°43' W 118°16'0 0.0
2017-Oct-15 06:00N 33°43' W 118°16'0 0.0
2017-Oct-15 05:31N 33°43' W 118°16'0 0.0
2017-Oct-15 04:39N 33°43' W 118°16'0 0.0
2017-Oct-15 04:20N 33°43' W 118°16'0 0.0
2017-Oct-15 04:00N 33°43' W 118°16'0 0.3
2017-Oct-15 03:30N 33°43' W 118°16'0 0.3
2017-Oct-15 02:59N 33°43' W 118°16'0 0.0
2017-Oct-15 02:30N 33°43' W 118°16'0 0.0
2017-Oct-15 02:00N 33°43' W 118°16'2 3.4
2017-Oct-15 01:30N 33°42' W 118°15'2 3.4
2017-Oct-15 01:00N 33°43' W 118°16'1 2.4
2017-Oct-15 00:30N 33°43' W 118°15'1 2.3
2017-Oct-15 00:00N 33°43' W 118°16'0 0.0
2017-Oct-14 23:30N 33°43' W 118°16'0 0.0
2017-Oct-14 22:59N 33°43' W 118°16'0 0.0
2017-Oct-14 22:30N 33°43' W 118°16'0 0.0
2017-Oct-14 21:49N 33°43' W 118°16'0 0.0
2017-Oct-14 21:30N 33°43' W 118°16'0 0.0
2017-Oct-14 20:59N 33°43' W 118°16'0 0.0
2017-Oct-14 20:30N 33°43' W 118°16'0 0.0
2017-Oct-14 20:00N 33°43' W 118°16'0 0.0
2017-Oct-14 19:30N 33°43' W 118°16'0 0.0
2017-Oct-14 19:00N 33°43' W 118°16'0 0.0
2017-Oct-14 18:30N 33°43' W 118°16'0 0.0
2017-Oct-14 17:59N 33°43' W 118°16'0 0.0
2017-Oct-14 17:30N 33°43' W 118°16'0 0.0
2017-Oct-14 17:00N 33°43' W 118°16'0 0.0
2017-Oct-14 16:30N 33°43' W 118°16'0 0.0
2017-Oct-14 16:00N 33°43' W 118°16'0 0.0
2017-Oct-14 15:30N 33°43' W 118°16'0 0.0
2017-Oct-14 14:56N 33°43' W 118°16'0 0.0
2017-Oct-14 14:22N 33°43' W 118°16'0 0.0
2017-Oct-14 13:29N 33°43' W 118°16'0 0.0
2017-Oct-14 12:53N 33°43' W 118°16'0 0.4
2017-Oct-14 12:31N 33°43' W 118°16'5 8.7
2017-Oct-14 11:59N 33°40' W 118°12'510.3
2017-Oct-14 11:30N 33°43' W 118°16'2 3.3
2017-Oct-14 10:58N 33°42' W 118°15'2 3.5
2017-Oct-14 10:28N 33°43' W 118°16'0 0.0
2017-Oct-14 09:52N 33°43' W 118°16'0 0.0
2017-Oct-14 09:30N 33°43' W 118°16'0 0.0
2017-Oct-14 08:43N 33°43' W 118°16'0 0.0
2017-Oct-14 08:29N 33°43' W 118°16'0 0.0
2017-Oct-14 07:46N 33°43' W 118°16'0 0.0
2017-Oct-14 07:12N 33°43' W 118°16'1 3.1
2017-Oct-14 07:00N 33°43' W 118°16'1 1.2
2017-Oct-14 06:30N 33°43' W 118°16'0 0.0
2017-Oct-14 06:01N 33°43' W 118°16'0 0.0
2017-Oct-14 05:28N 33°43' W 118°16'0 0.0
2017-Oct-14 04:52N 33°43' W 118°16'0 0.0
2017-Oct-14 04:30N 33°43' W 118°16'0 0.0
2017-Oct-14 03:59N 33°43' W 118°16'0 0.0
2017-Oct-14 03:30N 33°43' W 118°16'0 0.0
2017-Oct-14 03:00N 33°43' W 118°16'0 0.0
2017-Oct-14 02:30N 33°43' W 118°16'0 0.0
2017-Oct-14 01:59N 33°43' W 118°16'0 0.0
2017-Oct-14 01:25N 33°43' W 118°16'0 0.0
2017-Oct-14 01:00N 33°43' W 118°16'0 0.0
2017-Oct-14 00:30N 33°43' W 118°16'0 0.0
2017-Oct-14 00:00N 33°43' W 118°16'0 0.0
2017-Oct-13 23:30N 33°43' W 118°16'0 0.0
2017-Oct-13 23:00N 33°43' W 118°16'0 0.0
2017-Oct-13 22:25N 33°43' W 118°16'0 0.0
2017-Oct-13 21:52N 33°43' W 118°16'0 0.0
2017-Oct-13 21:23N 33°43' W 118°16'0 0.0
2017-Oct-13 21:00N 33°43' W 118°16'0 0.0
2017-Oct-13 20:30N 33°43' W 118°16'0 0.0
2017-Oct-13 20:00N 33°43' W 118°16'0 0.0
2017-Oct-13 19:30N 33°43' W 118°16'0 0.0
2017-Oct-13 19:00N 33°43' W 118°16'0 0.0
2017-Oct-13 18:29N 33°43' W 118°16'2 3.5
2017-Oct-13 18:00N 33°42' W 118°15'2 3.0
2017-Oct-13 17:26N 33°43' W 118°16'0 0.0
2017-Oct-13 16:58N 33°43' W 118°16'0 0.0
2017-Oct-13 16:30N 33°43' W 118°16'0 0.0
2017-Oct-13 16:00N 33°43' W 118°16'0 0.0
2017-Oct-13 15:29N 33°43' W 118°16'0 0.0
2017-Oct-13 15:01N 33°43' W 118°16'0 0.0
2017-Oct-13 14:29N 33°43' W 118°16'0 0.0
2017-Oct-13 14:00N 33°43' W 118°16'0 0.0
2017-Oct-13 13:24N 33°43' W 118°16'0 0.0
2017-Oct-13 13:01N 33°43' W 118°16'0 0.0
2017-Oct-13 11:59N 33°43' W 118°16'0 0.0
2017-Oct-13 11:30N 33°43' W 118°16'0 0.0
2017-Oct-13 10:55N 33°43' W 118°16'0 0.0
2017-Oct-13 10:30N 33°43' W 118°16'0 0.0
2017-Oct-13 09:53N 33°43' W 118°16'0 0.0
2017-Oct-13 09:28N 33°43' W 118°16'0 0.0
2017-Oct-13 09:01N 33°43' W 118°16'0 0.0
2017-Oct-13 08:30N 33°43' W 118°16'0 0.0
2017-Oct-13 08:00N 33°43' W 118°16'0 0.0
2017-Oct-13 07:30N 33°43' W 118°16'0 0.0
2017-Oct-13 07:00N 33°43' W 118°16'0 0.0
2017-Oct-13 06:30N 33°43' W 118°16'0 0.0
2017-Oct-13 05:59N 33°43' W 118°16'0 0.0
2017-Oct-13 05:30N 33°43' W 118°16'0 0.0
2017-Oct-13 05:00N 33°43' W 118°16'0 0.0
2017-Oct-13 04:15N 33°43' W 118°16'0 0.0
2017-Oct-13 03:59N 33°43' W 118°16'0 0.0
2017-Oct-13 03:06N 33°43' W 118°16'0 0.0
2017-Oct-13 02:51N 33°43' W 118°16'0 0.0
2017-Oct-13 02:28N 33°43' W 118°16'0 0.0
2017-Oct-13 01:51N 33°43' W 118°16'0 0.0
2017-Oct-13 01:28N 33°43' W 118°16'0 0.0
2017-Oct-13 00:58N 33°43' W 118°16'0 0.0
2017-Oct-13 00:23N 33°43' W 118°16'1 3.4
2017-Oct-12 23:58N 33°44' W 118°15'1 2.7
2017-Oct-12 23:27N 33°43' W 118°16'0 0.0
2017-Oct-12 22:53N 33°43' W 118°16'0 0.0
2017-Oct-12 22:28N 33°43' W 118°16'3 7.2
2017-Oct-12 22:00N 33°40' W 118°15'3 4.4
2017-Oct-12 21:15N 33°43' W 118°16'0 0.0
2017-Oct-12 20:53N 33°43' W 118°16'0 0.0
2017-Oct-12 20:30N 33°43' W 118°16'0 0.0
2017-Oct-12 20:00N 33°43' W 118°16'0 0.0
2017-Oct-12 19:29N 33°43' W 118°16'0 0.0
2017-Oct-12 19:00N 33°43' W 118°16'0 0.0
2017-Oct-12 18:26N 33°43' W 118°16'0 0.0
2017-Oct-12 17:59N 33°43' W 118°16'0 0.0
2017-Oct-12 17:27N 33°43' W 118°16'0 0.0
2017-Oct-12 17:00N 33°43' W 118°16'0 0.0
2017-Oct-12 16:27N 33°43' W 118°16'0 0.0
2017-Oct-12 14:21N 33°43' W 118°16'0 0.0
2017-Oct-12 13:38N 33°43' W 118°16'2 5.7
2017-Oct-12 13:19N 33°42' W 118°15'1 1.3
2017-Oct-12 12:48N 33°43' W 118°15'1 2.8
2017-Oct-12 12:24N 33°43' W 118°16'0 0.1
2017-Oct-12 11:14N 33°43' W 118°16'4 9.8
2017-Oct-12 10:49N 33°40' W 118°14'4 4.4
2017-Oct-12 09:54N 33°43' W 118°16'0 0.0
2017-Oct-12 09:30N 33°43' W 118°16'0 0.0
2017-Oct-12 08:57N 33°43' W 118°16'0 0.0
2017-Oct-12 08:30N 33°43' W 118°16'0 0.0
2017-Oct-12 08:00N 33°43' W 118°16'0 0.0
2017-Oct-12 07:05N 33°43' W 118°16'0 0.0
2017-Oct-12 06:59N 33°43' W 118°16'1 0.4
2017-Oct-12 05:15N 33°43' W 118°16'1 2.0
2017-Oct-12 04:55N 33°43' W 118°16'0 0.2
2017-Oct-12 02:35N 33°43' W 118°16'0 3.0
2017-Oct-12 02:26N 33°43' W 118°15'1 1.8
2017-Oct-12 01:56N 33°43' W 118°16'0 0.0
2017-Oct-12 01:26N 33°43' W 118°16'1 3.1
2017-Oct-12 01:00N 33°43' W 118°15'1 2.6
2017-Oct-12 00:30N 33°43' W 118°16'0 0.0
2017-Oct-12 00:00N 33°43' W 118°16'0 0.0
2017-Oct-11 23:30N 33°43' W 118°16'0 0.0
2017-Oct-11 23:00N 33°43' W 118°16'0 0.0
2017-Oct-11 22:30N 33°43' W 118°16'0 0.0
2017-Oct-11 22:00N 33°43' W 118°16'0 0.0
2017-Oct-11 21:31N 33°43' W 118°16'0 0.0
2017-Oct-11 20:55N 33°43' W 118°16'0 0.0
2017-Oct-11 20:30N 33°43' W 118°16'0 0.0
2017-Oct-11 20:00N 33°43' W 118°16'0 0.0
2017-Oct-11 19:30N 33°43' W 118°16'0 0.0
2017-Oct-11 19:00N 33°43' W 118°16'0 0.0
2017-Oct-11 18:30N 33°43' W 118°16'0 0.0
2017-Oct-11 17:59N 33°43' W 118°16'0 0.0
2017-Oct-11 17:30N 33°43' W 118°16'0 0.0
2017-Oct-11 16:59N 33°43' W 118°16'0 0.0
2017-Oct-11 00:00N 33°43' W 118°16'0 0.0
2017-Oct-10 23:30N 33°43' W 118°16'1 1.6
2017-Oct-10 23:01N 33°43' W 118°15'1 1.6
2017-Oct-10 22:30N 33°43' W 118°16'0 0.0
2017-Oct-10 22:00N 33°43' W 118°16'2 3.1
2017-Oct-10 21:30N 33°42' W 118°15'2 3.0
2017-Oct-10 21:00N 33°43' W 118°16'3 7.0
2017-Oct-10 20:30N 33°40' W 118°14'3 6.9
2017-Oct-10 20:00N 33°43' W 118°16'0 0.0
2017-Oct-10 19:28N 33°43' W 118°16'0 0.0
2017-Oct-10 19:00N 33°43' W 118°16'0 0.0
2017-Oct-10 18:30N 33°43' W 118°16'0 0.0
2017-Oct-10 18:00N 33°43' W 118°16'0 0.0
2017-Oct-10 17:29N 33°43' W 118°16'0 0.0
2017-Oct-10 17:00N 33°43' W 118°16'0 0.0
2017-Oct-10 16:30N 33°43' W 118°16'0 0.0
2017-Oct-10 16:00N 33°43' W 118°16'0 0.0
2017-Oct-10 15:30N 33°43' W 118°16'0 0.0
2017-Oct-10 14:57N 33°43' W 118°16'0 0.0
2017-Oct-10 14:00N 33°43' W 118°16'0 0.0
2017-Oct-10 13:30N 33°43' W 118°16'0 0.0
2017-Oct-10 13:00N 33°43' W 118°16'1 3.0
2017-Oct-10 12:30N 33°42' W 118°15'1 2.9
2017-Oct-10 12:00N 33°43' W 118°16'0 0.1
2017-Oct-10 11:29N 33°43' W 118°16'0 0.1
2017-Oct-10 11:00N 33°43' W 118°16'0 0.2
2017-Oct-10 10:30N 33°43' W 118°16'0 0.2
2017-Oct-10 10:00N 33°43' W 118°16'0 0.0
2017-Oct-10 09:31N 33°43' W 118°16'0 0.0
2017-Oct-10 09:00N 33°43' W 118°16'0 0.0
2017-Oct-10 08:30N 33°43' W 118°16'0 0.0
2017-Oct-10 08:00N 33°43' W 118°16'0 0.0
2017-Oct-10 07:30N 33°43' W 118°16'0 0.0
2017-Oct-10 07:00N 33°43' W 118°16'0 0.0
2017-Oct-10 06:30N 33°43' W 118°16'0 0.0
2017-Oct-10 06:00N 33°43' W 118°16'0 0.0
2017-Oct-10 05:30N 33°43' W 118°16'0 0.0
2017-Oct-10 05:00N 33°43' W 118°16'0 0.0
2017-Oct-10 04:30N 33°43' W 118°16'0 0.0
2017-Oct-10 04:00N 33°43' W 118°16'0 0.0
2017-Oct-10 03:30N 33°43' W 118°16'0 0.0
2017-Oct-10 03:00N 33°43' W 118°16'0 0.0
2017-Oct-10 02:30N 33°43' W 118°16'0 0.0
2017-Oct-10 02:00N 33°43' W 118°16'0 0.0
2017-Oct-10 01:30N 33°43' W 118°16'0 0.0
2017-Oct-10 01:00N 33°43' W 118°16'0 0.0
2017-Oct-10 00:30N 33°43' W 118°16'1 2.6
2017-Oct-10 00:00N 33°43' W 118°15'1 1.6
2017-Oct-09 23:30N 33°43' W 118°16'0 0.4
2017-Oct-09 23:00N 33°43' W 118°16'0 0.7
2017-Oct-09 22:31N 33°43' W 118°16'0 0.7
2017-Oct-09 22:01N 33°43' W 118°16'0 0.7
2017-Oct-09 21:30N 33°43' W 118°16'0 0.7
2017-Oct-09 21:00N 33°43' W 118°16'0 0.7
2017-Oct-09 20:30N 33°43' W 118°16'0 0.0
2017-Oct-09 20:00N 33°43' W 118°16'0 0.5
2017-Oct-09 19:30N 33°43' W 118°16'0 0.5
2017-Oct-09 19:00N 33°43' W 118°16'0 0.0
2017-Oct-09 18:30N 33°43' W 118°16'0 0.0
2017-Oct-09 18:00N 33°43' W 118°16'0 0.0
2017-Oct-09 17:30N 33°43' W 118°16'0 0.0
2017-Oct-09 17:00N 33°43' W 118°16'3 6.1
2017-Oct-09 16:30N 33°43' W 118°13'3 5.4
2017-Oct-09 15:57N 33°43' W 118°16'0 0.0
2017-Oct-09 07:00N 33°43' W 118°16'0 0.0
2017-Oct-09 04:03N 33°43' W 118°16'0 0.0
2017-Oct-09 03:43N 33°43' W 118°16'0 0.0
2017-Oct-09 02:25N 33°43' W 118°16'0 0.0
2017-Oct-09 01:57N 33°43' W 118°16'0 0.0
2017-Oct-09 01:30N 33°43' W 118°16'2 4.3
2017-Oct-09 00:59N 33°44' W 118°14'2 3.8
2017-Oct-09 00:25N 33°43' W 118°16'0 0.6
2017-Oct-08 23:54N 33°43' W 118°16'0 0.0
2017-Oct-08 23:30N 33°43' W 118°16'0 0.0
2017-Oct-08 22:54N 33°43' W 118°16'0 0.0
2017-Oct-08 22:30N 33°43' W 118°16'0 0.0
2017-Oct-08 22:00N 33°43' W 118°16'  

Dump ship's entire track history